Fort Riley, Kansas
Current Conditions -  °F | °C
As of 9:28 AM on Monday 22 Dec 2014 (Local Time) from KFRI Reporting Station
Overcast Overcast  
Wind Chill: 38°   Ceiling: 1000
Heat Index: 45°   Visibility: 10mi
Dew Point: 45°   Wind: 14mph
Humidity: 100%   Direction: 210°SSW
Pressure: 29.52"   Gusts: 20mph
Location:  39.07°N, 96.8°W
Report Text: KFRI 221528Z AUTO 21012G17KT 10SM OVC010 07/07 A2952 RMK AO2 RAE1456 CIG 008V010
Loading
Personal Weather Stations






























Interactive Weather Map New forecast layout! Learn more

10-Day Weather Forecast

Advertisements
Track Severe Weather on mobile